sensor_id;sensor_type;location;lat;lon;timestamp;P1;durP1;ratioP1;P2;durP2;ratioP2
30874;SDS011;17581;43.222;27.924;2023-05-19T00:02:09;20.77;;;8.65;;
30874;SDS011;17581;43.222;27.924;2023-05-19T00:04:35;14.40;;;8.93;;
30874;SDS011;17581;43.222;27.924;2023-05-19T00:07:01;25.50;;;9.57;;
30874;SDS011;17581;43.222;27.924;2023-05-19T00:09:27;16.25;;;10.02;;
30874;SDS011;17581;43.222;27.924;2023-05-19T00:11:53;31.58;;;9.98;;
30874;SDS011;17581;43.222;27.924;2023-05-19T00:14:19;21.92;;;9.68;;
30874;SDS011;17581;43.222;27.924;2023-05-19T00:16:44;18.67;;;8.88;;
30874;SDS011;17581;43.222;27.924;2023-05-19T00:19:11;28.90;;;10.02;;
30874;SDS011;17581;43.222;27.924;2023-05-19T00:21:37;28.60;;;9.23;;
30874;SDS011;17581;43.222;27.924;2023-05-19T00:24:03;34.33;;;9.82;;
30874;SDS011;17581;43.222;27.924;2023-05-19T00:26:28;20.23;;;9.38;;
30874;SDS011;17581;43.222;27.924;2023-05-19T00:28:54;17.60;;;9.73;;
30874;SDS011;17581;43.222;27.924;2023-05-19T00:31:19;19.10;;;8.43;;
30874;SDS011;17581;43.222;27.924;2023-05-19T00:33:45;18.73;;;8.52;;
30874;SDS011;17581;43.222;27.924;2023-05-19T00:36:10;21.20;;;8.75;;
30874;SDS011;17581;43.222;27.924;2023-05-19T00:38:36;15.65;;;8.13;;
30874;SDS011;17581;43.222;27.924;2023-05-19T00:41:03;24.20;;;9.77;;
30874;SDS011;17581;43.222;27.924;2023-05-19T00:43:29;30.60;;;9.23;;
30874;SDS011;17581;43.222;27.924;2023-05-19T00:45:55;23.13;;;8.93;;
30874;SDS011;17581;43.222;27.924;2023-05-19T00:48:21;26.45;;;9.32;;
30874;SDS011;17581;43.222;27.924;2023-05-19T00:50:47;22.15;;;7.95;;
30874;SDS011;17581;43.222;27.924;2023-05-19T00:53:14;46.40;;;10.00;;
30874;SDS011;17581;43.222;27.924;2023-05-19T00:55:42;21.45;;;9.05;;
30874;SDS011;17581;43.222;27.924;2023-05-19T00:58:08;23.58;;;8.32;;
30874;SDS011;17581;43.222;27.924;2023-05-19T01:00:35;17.85;;;8.13;;
30874;SDS011;17581;43.222;27.924;2023-05-19T01:03:03;13.25;;;7.70;;
30874;SDS011;17581;43.222;27.924;2023-05-19T01:05:35;17.20;;;7.88;;
30874;SDS011;17581;43.222;27.924;2023-05-19T01:08:03;19.55;;;8.18;;
30874;SDS011;17581;43.222;27.924;2023-05-19T01:10:29;22.25;;;7.82;;
30874;SDS011;17581;43.222;27.924;2023-05-19T01:12:55;31.17;;;9.55;;
30874;SDS011;17581;43.222;27.924;2023-05-19T01:15:21;29.73;;;9.32;;
30874;SDS011;17581;43.222;27.924;2023-05-19T01:17:49;16.67;;;8.75;;
30874;SDS011;17581;43.222;27.924;2023-05-19T01:20:30;27.02;;;9.27;;
30874;SDS011;17581;43.222;27.924;2023-05-19T01:23:09;26.40;;;10.52;;
30874;SDS011;17581;43.222;27.924;2023-05-19T01:31:20;17.98;;;10.40;;
30874;SDS011;17581;43.222;27.924;2023-05-19T01:33:48;22.30;;;10.20;;
30874;SDS011;17581;43.222;27.924;2023-05-19T01:36:15;30.05;;;10.35;;
30874;SDS011;17581;43.222;27.924;2023-05-19T01:38:43;27.23;;;10.55;;
30874;SDS011;17581;43.222;27.924;2023-05-19T01:41:10;34.72;;;10.50;;
30874;SDS011;17581;43.222;27.924;2023-05-19T01:43:36;29.17;;;10.13;;
30874;SDS011;17581;43.222;27.924;2023-05-19T01:46:03;22.00;;;10.30;;
30874;SDS011;17581;43.222;27.924;2023-05-19T01:48:29;27.05;;;11.07;;
30874;SDS011;17581;43.222;27.924;2023-05-19T01:50:56;32.83;;;11.93;;
30874;SDS011;17581;43.222;27.924;2023-05-19T01:53:23;28.90;;;13.40;;
30874;SDS011;17581;43.222;27.924;2023-05-19T01:55:49;24.17;;;12.85;;
30874;SDS011;17581;43.222;27.924;2023-05-19T02:06:32;31.75;;;15.02;;
30874;SDS011;17581;43.222;27.924;2023-05-19T02:11:46;28.15;;;12.95;;
30874;SDS011;17581;43.222;27.924;2023-05-19T02:17:31;29.42;;;15.20;;
30874;SDS011;17581;43.222;27.924;2023-05-19T02:20:00;32.47;;;14.30;;
30874;SDS011;17581;43.222;27.924;2023-05-19T02:22:25;25.63;;;14.77;;
30874;SDS011;17581;43.222;27.924;2023-05-19T02:24:51;23.27;;;14.57;;
30874;SDS011;17581;43.222;27.924;2023-05-19T02:27:16;41.65;;;14.82;;
30874;SDS011;17581;43.222;27.924;2023-05-19T02:29:42;39.97;;;16.60;;
30874;SDS011;17581;43.222;27.924;2023-05-19T02:32:09;29.00;;;16.13;;
30874;SDS011;17581;43.222;27.924;2023-05-19T02:34:35;44.22;;;16.27;;
30874;SDS011;17581;43.222;27.924;2023-05-19T02:37:01;37.85;;;15.75;;
30874;SDS011;17581;43.222;27.924;2023-05-19T02:39:27;31.42;;;15.82;;
30874;SDS011;17581;43.222;27.924;2023-05-19T02:41:55;28.38;;;15.35;;
30874;SDS011;17581;43.222;27.924;2023-05-19T02:44:20;37.75;;;16.02;;
30874;SDS011;17581;43.222;27.924;2023-05-19T02:46:45;23.90;;;15.00;;
30874;SDS011;17581;43.222;27.924;2023-05-19T02:49:11;31.13;;;15.52;;
30874;SDS011;17581;43.222;27.924;2023-05-19T02:51:36;38.33;;;15.13;;
30874;SDS011;17581;43.222;27.924;2023-05-19T02:54:02;27.17;;;15.95;;
30874;SDS011;17581;43.222;27.924;2023-05-19T02:56:27;34.20;;;15.48;;
30874;SDS011;17581;43.222;27.924;2023-05-19T02:58:52;33.63;;;15.90;;
30874;SDS011;17581;43.222;27.924;2023-05-19T03:01:18;24.05;;;15.20;;
30874;SDS011;17581;43.222;27.924;2023-05-19T03:03:45;27.20;;;14.18;;
30874;SDS011;17581;43.222;27.924;2023-05-19T03:06:11;24.92;;;15.15;;
30874;SDS011;17581;43.222;27.924;2023-05-19T03:08:37;29.42;;;15.45;;
30874;SDS011;17581;43.222;27.924;2023-05-19T03:11:02;27.52;;;15.05;;
30874;SDS011;17581;43.222;27.924;2023-05-19T03:13:28;34.00;;;15.27;;
30874;SDS011;17581;43.222;27.924;2023-05-19T03:15:53;34.65;;;15.07;;
30874;SDS011;17581;43.222;27.924;2023-05-19T03:18:21;29.63;;;15.43;;
30874;SDS011;17581;43.222;27.924;2023-05-19T03:20:48;40.78;;;14.65;;
30874;SDS011;17581;43.222;27.924;2023-05-19T03:23:14;33.75;;;15.77;;
30874;SDS011;17581;43.222;27.924;2023-05-19T03:25:39;24.77;;;14.82;;
30874;SDS011;17581;43.222;27.924;2023-05-19T03:28:05;43.70;;;15.23;;
30874;SDS011;17581;43.222;27.924;2023-05-19T03:30:30;41.28;;;18.10;;
30874;SDS011;17581;43.222;27.924;2023-05-19T03:32:55;30.23;;;15.07;;
30874;SDS011;17581;43.222;27.924;2023-05-19T03:35:21;29.45;;;15.07;;
30874;SDS011;17581;43.222;27.924;2023-05-19T03:37:46;28.70;;;13.27;;
30874;SDS011;17581;43.222;27.924;2023-05-19T03:40:12;28.58;;;15.75;;
30874;SDS011;17581;43.222;27.924;2023-05-19T03:42:37;37.25;;;15.88;;
30874;SDS011;17581;43.222;27.924;2023-05-19T03:45:03;59.45;;;16.23;;
30874;SDS011;17581;43.222;27.924;2023-05-19T03:47:28;31.73;;;15.05;;
30874;SDS011;17581;43.222;27.924;2023-05-19T03:49:55;31.45;;;15.25;;
30874;SDS011;17581;43.222;27.924;2023-05-19T03:52:21;40.53;;;14.65;;
30874;SDS011;17581;43.222;27.924;2023-05-19T03:54:46;33.83;;;15.88;;
30874;SDS011;17581;43.222;27.924;2023-05-19T03:57:12;26.55;;;14.73;;
30874;SDS011;17581;43.222;27.924;2023-05-19T03:59:38;36.25;;;13.52;;
30874;SDS011;17581;43.222;27.924;2023-05-19T04:02:05;43.28;;;15.02;;
30874;SDS011;17581;43.222;27.924;2023-05-19T04:04:31;48.08;;;14.88;;
30874;SDS011;17581;43.222;27.924;2023-05-19T04:06:56;25.88;;;12.65;;
30874;SDS011;17581;43.222;27.924;2023-05-19T04:09:22;28.15;;;13.05;;
30874;SDS011;17581;43.222;27.924;2023-05-19T04:11:48;40.80;;;14.32;;
30874;SDS011;17581;43.222;27.924;2023-05-19T04:14:13;35.35;;;13.07;;
30874;SDS011;17581;43.222;27.924;2023-05-19T04:16:39;30.05;;;14.52;;
30874;SDS011;17581;43.222;27.924;2023-05-19T04:19:05;30.55;;;11.98;;
30874;SDS011;17581;43.222;27.924;2023-05-19T04:21:31;37.95;;;13.88;;
30874;SDS011;17581;43.222;27.924;2023-05-19T04:23:56;23.77;;;12.70;;
30874;SDS011;17581;43.222;27.924;2023-05-19T04:26:24;21.17;;;11.70;;
30874;SDS011;17581;43.222;27.924;2023-05-19T04:28:51;31.08;;;12.45;;
30874;SDS011;17581;43.222;27.924;2023-05-19T04:31:18;38.20;;;13.27;;
30874;SDS011;17581;43.222;27.924;2023-05-19T04:33:45;36.42;;;11.65;;
30874;SDS011;17581;43.222;27.924;2023-05-19T04:36:12;41.40;;;14.32;;
30874;SDS011;17581;43.222;27.924;2023-05-19T04:38:38;41.15;;;13.68;;
30874;SDS011;17581;43.222;27.924;2023-05-19T04:41:07;39.30;;;13.32;;
30874;SDS011;17581;43.222;27.924;2023-05-19T04:43:36;42.92;;;14.43;;
30874;SDS011;17581;43.222;27.924;2023-05-19T04:46:08;38.10;;;12.80;;
30874;SDS011;17581;43.222;27.924;2023-05-19T04:48:35;35.80;;;12.63;;
30874;SDS011;17581;43.222;27.924;2023-05-19T04:51:01;63.60;;;15.95;;
30874;SDS011;17581;43.222;27.924;2023-05-19T04:53:27;20.13;;;11.52;;
30874;SDS011;17581;43.222;27.924;2023-05-19T04:55:53;30.05;;;11.68;;
30874;SDS011;17581;43.222;27.924;2023-05-19T04:58:18;38.50;;;12.90;;
30874;SDS011;17581;43.222;27.924;2023-05-19T05:00:44;28.40;;;10.98;;
30874;SDS011;17581;43.222;27.924;2023-05-19T05:03:09;42.92;;;14.23;;
30874;SDS011;17581;43.222;27.924;2023-05-19T05:05:36;58.80;;;15.02;;
30874;SDS011;17581;43.222;27.924;2023-05-19T05:08:01;56.80;;;16.63;;
30874;SDS011;17581;43.222;27.924;2023-05-19T05:10:27;30.98;;;12.25;;
30874;SDS011;17581;43.222;27.924;2023-05-19T05:12:53;45.00;;;11.80;;
30874;SDS011;17581;43.222;27.924;2023-05-19T05:15:19;23.02;;;11.93;;
30874;SDS011;17581;43.222;27.924;2023-05-19T05:17:45;38.35;;;14.13;;
30874;SDS011;17581;43.222;27.924;2023-05-19T05:20:11;50.83;;;14.50;;
30874;SDS011;17581;43.222;27.924;2023-05-19T05:22:37;49.10;;;14.98;;
30874;SDS011;17581;43.222;27.924;2023-05-19T05:25:03;36.72;;;12.60;;
30874;SDS011;17581;43.222;27.924;2023-05-19T05:27:29;22.88;;;11.60;;
30874;SDS011;17581;43.222;27.924;2023-05-19T05:29:55;38.28;;;12.90;;
30874;SDS011;17581;43.222;27.924;2023-05-19T05:32:21;23.33;;;11.73;;
30874;SDS011;17581;43.222;27.924;2023-05-19T05:34:47;46.67;;;12.20;;
30874;SDS011;17581;43.222;27.924;2023-05-19T05:37:12;37.40;;;11.55;;
30874;SDS011;17581;43.222;27.924;2023-05-19T05:39:38;44.67;;;12.35;;
30874;SDS011;17581;43.222;27.924;2023-05-19T05:42:03;49.83;;;13.05;;
30874;SDS011;17581;43.222;27.924;2023-05-19T05:44:29;32.75;;;11.27;;
30874;SDS011;17581;43.222;27.924;2023-05-19T05:46:54;42.15;;;12.43;;
30874;SDS011;17581;43.222;27.924;2023-05-19T05:49:20;23.25;;;10.35;;
30874;SDS011;17581;43.222;27.924;2023-05-19T05:51:46;41.58;;;12.15;;
30874;SDS011;17581;43.222;27.924;2023-05-19T05:54:12;24.92;;;11.85;;
30874;SDS011;17581;43.222;27.924;2023-05-19T05:56:41;29.85;;;10.02;;
30874;SDS011;17581;43.222;27.924;2023-05-19T05:59:06;34.40;;;11.05;;
30874;SDS011;17581;43.222;27.924;2023-05-19T06:01:32;46.33;;;12.73;;
30874;SDS011;17581;43.222;27.924;2023-05-19T06:03:59;28.67;;;10.70;;
30874;SDS011;17581;43.222;27.924;2023-05-19T06:06:25;29.08;;;12.13;;
30874;SDS011;17581;43.222;27.924;2023-05-19T06:08:50;39.80;;;11.02;;
30874;SDS011;17581;43.222;27.924;2023-05-19T06:11:15;42.50;;;12.15;;
30874;SDS011;17581;43.222;27.924;2023-05-19T06:13:41;23.80;;;11.02;;
30874;SDS011;17581;43.222;27.924;2023-05-19T06:16:06;56.67;;;20.33;;
30874;SDS011;17581;43.222;27.924;2023-05-19T06:18:33;33.17;;;14.25;;
30874;SDS011;17581;43.222;27.924;2023-05-19T06:20:58;56.17;;;18.10;;
30874;SDS011;17581;43.222;27.924;2023-05-19T06:23:24;52.88;;;17.38;;
30874;SDS011;17581;43.222;27.924;2023-05-19T06:25:50;27.73;;;15.82;;
30874;SDS011;17581;43.222;27.924;2023-05-19T06:28:16;44.88;;;15.65;;
30874;SDS011;17581;43.222;27.924;2023-05-19T06:30:41;32.83;;;12.18;;
30874;SDS011;17581;43.222;27.924;2023-05-19T06:33:07;46.40;;;15.23;;
30874;SDS011;17581;43.222;27.924;2023-05-19T06:35:32;51.50;;;17.95;;
30874;SDS011;17581;43.222;27.924;2023-05-19T06:37:58;36.08;;;15.98;;
30874;SDS011;17581;43.222;27.924;2023-05-19T06:40:23;28.88;;;12.15;;
30874;SDS011;17581;43.222;27.924;2023-05-19T06:42:49;37.38;;;12.05;;
30874;SDS011;17581;43.222;27.924;2023-05-19T06:45:14;26.85;;;13.13;;
30874;SDS011;17581;43.222;27.924;2023-05-19T06:47:40;44.30;;;16.88;;
30874;SDS011;17581;43.222;27.924;2023-05-19T06:50:13;34.22;;;11.35;;
30874;SDS011;17581;43.222;27.924;2023-05-19T06:52:39;21.13;;;11.38;;
30874;SDS011;17581;43.222;27.924;2023-05-19T06:55:05;36.50;;;14.15;;
30874;SDS011;17581;43.222;27.924;2023-05-19T06:57:31;30.98;;;12.18;;
30874;SDS011;17581;43.222;27.924;2023-05-19T06:59:56;36.63;;;13.00;;
30874;SDS011;17581;43.222;27.924;2023-05-19T07:02:21;28.92;;;13.07;;
30874;SDS011;17581;43.222;27.924;2023-05-19T07:04:47;39.75;;;10.65;;
30874;SDS011;17581;43.222;27.924;2023-05-19T07:07:12;25.58;;;12.57;;
30874;SDS011;17581;43.222;27.924;2023-05-19T07:09:38;43.28;;;12.77;;
30874;SDS011;17581;43.222;27.924;2023-05-19T07:12:04;35.72;;;12.20;;
30874;SDS011;17581;43.222;27.924;2023-05-19T07:14:29;37.50;;;15.35;;
30874;SDS011;17581;43.222;27.924;2023-05-19T07:16:55;25.42;;;11.05;;
30874;SDS011;17581;43.222;27.924;2023-05-19T07:19:20;23.58;;;10.27;;
30874;SDS011;17581;43.222;27.924;2023-05-19T07:21:47;38.25;;;11.63;;
30874;SDS011;17581;43.222;27.924;2023-05-19T07:24:13;45.75;;;12.07;;
30874;SDS011;17581;43.222;27.924;2023-05-19T07:26:38;35.42;;;12.15;;
30874;SDS011;17581;43.222;27.924;2023-05-19T07:29:04;22.95;;;10.77;;
30874;SDS011;17581;43.222;27.924;2023-05-19T07:31:29;22.85;;;11.55;;
30874;SDS011;17581;43.222;27.924;2023-05-19T07:33:55;30.02;;;13.32;;
30874;SDS011;17581;43.222;27.924;2023-05-19T07:36:21;53.83;;;14.13;;
30874;SDS011;17581;43.222;27.924;2023-05-19T07:38:46;37.45;;;13.45;;
30874;SDS011;17581;43.222;27.924;2023-05-19T07:41:12;34.53;;;12.18;;
30874;SDS011;17581;43.222;27.924;2023-05-19T07:43:37;37.78;;;11.95;;
30874;SDS011;17581;43.222;27.924;2023-05-19T07:46:03;28.20;;;12.18;;
30874;SDS011;17581;43.222;27.924;2023-05-19T07:48:29;24.13;;;12.05;;
30874;SDS011;17581;43.222;27.924;2023-05-19T07:50:55;33.65;;;11.90;;
30874;SDS011;17581;43.222;27.924;2023-05-19T07:53:20;24.75;;;11.98;;
30874;SDS011;17581;43.222;27.924;2023-05-19T07:55:46;18.58;;;11.45;;
30874;SDS011;17581;43.222;27.924;2023-05-19T07:58:12;47.10;;;13.93;;
30874;SDS011;17581;43.222;27.924;2023-05-19T08:00:37;35.35;;;14.70;;
30874;SDS011;17581;43.222;27.924;2023-05-19T08:03:03;47.67;;;14.82;;
30874;SDS011;17581;43.222;27.924;2023-05-19T08:05:28;32.42;;;14.07;;
30874;SDS011;17581;43.222;27.924;2023-05-19T08:07:55;37.50;;;14.45;;
30874;SDS011;17581;43.222;27.924;2023-05-19T08:10:21;34.25;;;14.45;;
30874;SDS011;17581;43.222;27.924;2023-05-19T08:12:46;33.10;;;13.80;;
30874;SDS011;17581;43.222;27.924;2023-05-19T08:15:12;25.75;;;14.07;;
30874;SDS011;17581;43.222;27.924;2023-05-19T08:17:38;50.75;;;14.93;;
30874;SDS011;17581;43.222;27.924;2023-05-19T08:20:03;28.98;;;13.38;;
30874;SDS011;17581;43.222;27.924;2023-05-19T08:22:32;38.05;;;14.73;;
30874;SDS011;17581;43.222;27.924;2023-05-19T08:24:57;39.00;;;13.48;;
30874;SDS011;17581;43.222;27.924;2023-05-19T08:27:22;53.13;;;14.93;;
30874;SDS011;17581;43.222;27.924;2023-05-19T08:29:48;27.08;;;14.27;;
30874;SDS011;17581;43.222;27.924;2023-05-19T08:32:13;32.95;;;13.98;;
30874;SDS011;17581;43.222;27.924;2023-05-19T08:34:39;37.35;;;14.30;;
30874;SDS011;17581;43.222;27.924;2023-05-19T08:37:05;32.15;;;13.77;;
30874;SDS011;17581;43.222;27.924;2023-05-19T08:39:31;48.50;;;15.65;;
30874;SDS011;17581;43.222;27.924;2023-05-19T08:41:58;38.35;;;13.57;;
30874;SDS011;17581;43.222;27.924;2023-05-19T08:44:23;43.70;;;14.30;;
30874;SDS011;17581;43.222;27.924;2023-05-19T08:46:49;33.38;;;14.13;;
30874;SDS011;17581;43.222;27.924;2023-05-19T08:49:18;33.05;;;14.27;;
30874;SDS011;17581;43.222;27.924;2023-05-19T08:51:54;41.53;;;19.05;;
30874;SDS011;17581;43.222;27.924;2023-05-19T08:54:21;30.40;;;13.52;;
30874;SDS011;17581;43.222;27.924;2023-05-19T08:56:54;29.35;;;14.18;;
30874;SDS011;17581;43.222;27.924;2023-05-19T08:59:19;41.00;;;15.55;;
30874;SDS011;17581;43.222;27.924;2023-05-19T09:01:46;25.58;;;14.45;;
30874;SDS011;17581;43.222;27.924;2023-05-19T09:04:12;44.58;;;14.43;;
30874;SDS011;17581;43.222;27.924;2023-05-19T09:06:39;34.42;;;14.30;;
30874;SDS011;17581;43.222;27.924;2023-05-19T09:09:06;25.98;;;11.93;;
30874;SDS011;17581;43.222;27.924;2023-05-19T09:11:32;19.02;;;12.55;;
30874;SDS011;17581;43.222;27.924;2023-05-19T09:14:01;50.05;;;16.80;;
30874;SDS011;17581;43.222;27.924;2023-05-19T09:16:26;39.22;;;14.52;;
30874;SDS011;17581;43.222;27.924;2023-05-19T09:18:54;39.10;;;14.75;;
30874;SDS011;17581;43.222;27.924;2023-05-19T09:21:25;30.08;;;14.20;;
30874;SDS011;17581;43.222;27.924;2023-05-19T09:23:57;49.15;;;16.98;;
30874;SDS011;17581;43.222;27.924;2023-05-19T09:26:23;22.67;;;13.07;;
30874;SDS011;17581;43.222;27.924;2023-05-19T09:28:49;35.40;;;14.30;;
30874;SDS011;17581;43.222;27.924;2023-05-19T09:31:14;39.15;;;13.80;;
30874;SDS011;17581;43.222;27.924;2023-05-19T09:33:41;23.25;;;13.15;;
30874;SDS011;17581;43.222;27.924;2023-05-19T09:36:07;32.35;;;12.50;;
30874;SDS011;17581;43.222;27.924;2023-05-19T09:38:35;26.90;;;13.10;;
30874;SDS011;17581;43.222;27.924;2023-05-19T09:41:01;23.83;;;11.38;;
30874;SDS011;17581;43.222;27.924;2023-05-19T09:43:31;31.65;;;13.98;;
30874;SDS011;17581;43.222;27.924;2023-05-19T09:45:58;34.38;;;12.95;;
30874;SDS011;17581;43.222;27.924;2023-05-19T09:48:25;28.60;;;13.23;;
30874;SDS011;17581;43.222;27.924;2023-05-19T09:50:52;26.33;;;11.93;;
30874;SDS011;17581;43.222;27.924;2023-05-19T09:53:19;36.88;;;12.55;;
30874;SDS011;17581;43.222;27.924;2023-05-19T09:55:45;19.05;;;10.52;;
30874;SDS011;17581;43.222;27.924;2023-05-19T09:58:15;107.15;;;18.00;;
30874;SDS011;17581;43.222;27.924;2023-05-19T10:00:42;118.82;;;20.15;;
30874;SDS011;17581;43.222;27.924;2023-05-19T10:03:08;60.78;;;14.60;;
30874;SDS011;17581;43.222;27.924;2023-05-19T10:05:34;59.45;;;12.10;;
30874;SDS011;17581;43.222;27.924;2023-05-19T10:08:00;27.98;;;10.65;;
30874;SDS011;17581;43.222;27.924;2023-05-19T10:10:26;21.30;;;10.40;;
30874;SDS011;17581;43.222;27.924;2023-05-19T10:12:53;20.30;;;9.93;;
30874;SDS011;17581;43.222;27.924;2023-05-19T10:15:19;19.63;;;10.90;;
30874;SDS011;17581;43.222;27.924;2023-05-19T10:17:45;27.98;;;10.60;;
30874;SDS011;17581;43.222;27.924;2023-05-19T10:20:11;52.05;;;11.63;;
30874;SDS011;17581;43.222;27.924;2023-05-19T10:22:38;23.23;;;10.55;;
30874;SDS011;17581;43.222;27.924;2023-05-19T10:25:05;23.98;;;10.82;;
30874;SDS011;17581;43.222;27.924;2023-05-19T10:27:31;36.25;;;11.15;;
30874;SDS011;17581;43.222;27.924;2023-05-19T10:30:06;21.52;;;8.98;;
30874;SDS011;17581;43.222;27.924;2023-05-19T10:32:35;36.55;;;9.75;;
30874;SDS011;17581;43.222;27.924;2023-05-19T10:40:11;32.38;;;9.48;;
30874;SDS011;17581;43.222;27.924;2023-05-19T10:42:49;38.90;;;10.30;;
30874;SDS011;17581;43.222;27.924;2023-05-19T10:45:26;26.75;;;9.65;;
30874;SDS011;17581;43.222;27.924;2023-05-19T10:47:55;34.80;;;9.63;;
30874;SDS011;17581;43.222;27.924;2023-05-19T10:50:20;34.15;;;10.93;;
30874;SDS011;17581;43.222;27.924;2023-05-19T10:52:51;21.77;;;10.48;;
30874;SDS011;17581;43.222;27.924;2023-05-19T10:55:43;22.83;;;9.07;;
30874;SDS011;17581;43.222;27.924;2023-05-19T10:58:11;19.70;;;8.60;;
30874;SDS011;17581;43.222;27.924;2023-05-19T11:00:37;42.53;;;9.90;;
30874;SDS011;17581;43.222;27.924;2023-05-19T11:03:16;24.80;;;8.88;;
30874;SDS011;17581;43.222;27.924;2023-05-19T11:05:42;20.10;;;8.38;;
30874;SDS011;17581;43.222;27.924;2023-05-19T11:08:10;15.20;;;9.10;;
30874;SDS011;17581;43.222;27.924;2023-05-19T11:10:36;33.47;;;10.35;;
30874;SDS011;17581;43.222;27.924;2023-05-19T11:13:03;23.92;;;10.00;;
30874;SDS011;17581;43.222;27.924;2023-05-19T11:15:32;17.27;;;8.07;;
30874;SDS011;17581;43.222;27.924;2023-05-19T11:17:59;16.92;;;8.45;;
30874;SDS011;17581;43.222;27.924;2023-05-19T11:20:26;29.10;;;8.32;;
30874;SDS011;17581;43.222;27.924;2023-05-19T11:25:49;30.30;;;9.40;;
30874;SDS011;17581;43.222;27.924;2023-05-19T11:28:18;23.73;;;7.38;;
30874;SDS011;17581;43.222;27.924;2023-05-19T11:30:53;20.85;;;8.00;;
30874;SDS011;17581;43.222;27.924;2023-05-19T11:33:21;16.98;;;7.28;;
30874;SDS011;17581;43.222;27.924;2023-05-19T11:35:51;78.07;;;10.80;;
30874;SDS011;17581;43.222;27.924;2023-05-19T11:38:18;19.63;;;8.18;;
30874;SDS011;17581;43.222;27.924;2023-05-19T11:40:44;20.45;;;8.43;;
30874;SDS011;17581;43.222;27.924;2023-05-19T11:43:11;21.92;;;8.00;;
30874;SDS011;17581;43.222;27.924;2023-05-19T11:45:37;48.95;;;11.38;;
30874;SDS011;17581;43.222;27.924;2023-05-19T11:48:03;18.13;;;10.32;;
30874;SDS011;17581;43.222;27.924;2023-05-19T11:50:32;19.27;;;9.07;;
30874;SDS011;17581;43.222;27.924;2023-05-19T11:52:59;23.45;;;10.10;;
30874;SDS011;17581;43.222;27.924;2023-05-19T11:55:25;16.95;;;10.02;;
30874;SDS011;17581;43.222;27.924;2023-05-19T11:58:00;33.60;;;11.15;;
30874;SDS011;17581;43.222;27.924;2023-05-19T12:00:27;28.27;;;8.80;;
30874;SDS011;17581;43.222;27.924;2023-05-19T12:03:01;14.18;;;7.45;;
30874;SDS011;17581;43.222;27.924;2023-05-19T12:05:27;24.35;;;9.07;;
30874;SDS011;17581;43.222;27.924;2023-05-19T12:07:53;28.45;;;8.27;;
30874;SDS011;17581;43.222;27.924;2023-05-19T12:10:24;26.20;;;7.50;;
30874;SDS011;17581;43.222;27.924;2023-05-19T12:15:18;36.72;;;8.77;;
30874;SDS011;17581;43.222;27.924;2023-05-19T12:17:49;31.92;;;7.45;;
30874;SDS011;17581;43.222;27.924;2023-05-19T12:20:15;37.58;;;8.65;;
30874;SDS011;17581;43.222;27.924;2023-05-19T12:22:42;24.25;;;10.35;;
30874;SDS011;17581;43.222;27.924;2023-05-19T12:25:08;26.67;;;7.80;;
30874;SDS011;17581;43.222;27.924;2023-05-19T12:27:34;22.30;;;6.70;;
30874;SDS011;17581;43.222;27.924;2023-05-19T12:30:03;10.80;;;5.60;;
30874;SDS011;17581;43.222;27.924;2023-05-19T12:32:29;17.70;;;7.18;;
30874;SDS011;17581;43.222;27.924;2023-05-19T12:34:58;20.83;;;6.90;;
30874;SDS011;17581;43.222;27.924;2023-05-19T12:37:27;21.95;;;6.57;;
30874;SDS011;17581;43.222;27.924;2023-05-19T12:39:54;21.50;;;7.60;;
30874;SDS011;17581;43.222;27.924;2023-05-19T12:42:20;26.60;;;7.57;;
30874;SDS011;17581;43.222;27.924;2023-05-19T12:44:47;16.30;;;6.78;;
30874;SDS011;17581;43.222;27.924;2023-05-19T12:47:17;23.52;;;6.57;;
30874;SDS011;17581;43.222;27.924;2023-05-19T12:52:19;15.52;;;6.85;;
30874;SDS011;17581;43.222;27.924;2023-05-19T12:54:47;21.80;;;7.35;;
30874;SDS011;17581;43.222;27.924;2023-05-19T12:57:15;46.00;;;12.05;;
30874;SDS011;17581;43.222;27.924;2023-05-19T12:59:41;34.78;;;8.95;;
30874;SDS011;17581;43.222;27.924;2023-05-19T13:02:06;28.10;;;8.40;;
30874;SDS011;17581;43.222;27.924;2023-05-19T13:04:32;27.83;;;7.63;;
30874;SDS011;17581;43.222;27.924;2023-05-19T13:06:57;63.63;;;11.70;;
30874;SDS011;17581;43.222;27.924;2023-05-19T13:09:23;26.15;;;8.57;;
30874;SDS011;17581;43.222;27.924;2023-05-19T13:11:48;19.98;;;6.85;;
30874;SDS011;17581;43.222;27.924;2023-05-19T13:14:15;27.45;;;8.43;;
30874;SDS011;17581;43.222;27.924;2023-05-19T13:16:44;31.25;;;7.95;;
30874;SDS011;17581;43.222;27.924;2023-05-19T13:19:14;73.95;;;12.65;;
30874;SDS011;17581;43.222;27.924;2023-05-19T13:21:41;18.40;;;6.80;;
30874;SDS011;17581;43.222;27.924;2023-05-19T13:24:07;18.52;;;7.20;;
30874;SDS011;17581;43.222;27.924;2023-05-19T13:26:33;37.15;;;8.57;;
30874;SDS011;17581;43.222;27.924;2023-05-19T13:28:59;15.98;;;7.07;;
30874;SDS011;17581;43.222;27.924;2023-05-19T13:31:26;14.77;;;6.85;;
30874;SDS011;17581;43.222;27.924;2023-05-19T13:33:51;21.15;;;7.32;;
30874;SDS011;17581;43.222;27.924;2023-05-19T13:36:17;48.28;;;9.93;;
30874;SDS011;17581;43.222;27.924;2023-05-19T13:38:42;23.05;;;6.80;;
30874;SDS011;17581;43.222;27.924;2023-05-19T13:41:07;18.27;;;6.38;;
30874;SDS011;17581;43.222;27.924;2023-05-19T13:43:33;23.08;;;8.90;;
30874;SDS011;17581;43.222;27.924;2023-05-19T13:45:59;26.30;;;7.65;;
30874;SDS011;17581;43.222;27.924;2023-05-19T13:48:24;24.10;;;7.55;;
30874;SDS011;17581;43.222;27.924;2023-05-19T13:50:50;19.83;;;6.60;;
30874;SDS011;17581;43.222;27.924;2023-05-19T13:53:18;32.53;;;8.23;;
30874;SDS011;17581;43.222;27.924;2023-05-19T13:55:44;32.33;;;7.88;;
30874;SDS011;17581;43.222;27.924;2023-05-19T13:58:09;18.75;;;7.22;;
30874;SDS011;17581;43.222;27.924;2023-05-19T14:00:36;14.18;;;6.45;;
30874;SDS011;17581;43.222;27.924;2023-05-19T14:03:02;25.75;;;7.30;;
30874;SDS011;17581;43.222;27.924;2023-05-19T14:05:27;18.13;;;7.65;;
30874;SDS011;17581;43.222;27.924;2023-05-19T14:07:53;27.85;;;7.03;;
30874;SDS011;17581;43.222;27.924;2023-05-19T14:10:19;20.60;;;7.20;;
30874;SDS011;17581;43.222;27.924;2023-05-19T14:12:44;22.42;;;7.70;;
30874;SDS011;17581;43.222;27.924;2023-05-19T14:15:10;29.08;;;6.63;;
30874;SDS011;17581;43.222;27.924;2023-05-19T14:17:36;18.58;;;7.90;;
30874;SDS011;17581;43.222;27.924;2023-05-19T14:20:01;18.13;;;6.25;;
30874;SDS011;17581;43.222;27.924;2023-05-19T14:22:27;33.15;;;6.85;;
30874;SDS011;17581;43.222;27.924;2023-05-19T14:24:52;21.13;;;7.88;;
30874;SDS011;17581;43.222;27.924;2023-05-19T14:27:18;28.15;;;8.50;;
30874;SDS011;17581;43.222;27.924;2023-05-19T14:29:43;20.23;;;6.20;;
30874;SDS011;17581;43.222;27.924;2023-05-19T14:32:09;24.63;;;9.10;;
30874;SDS011;17581;43.222;27.924;2023-05-19T14:34:34;23.02;;;7.13;;
30874;SDS011;17581;43.222;27.924;2023-05-19T14:37:00;19.98;;;7.40;;
30874;SDS011;17581;43.222;27.924;2023-05-19T14:39:27;25.17;;;10.27;;
30874;SDS011;17581;43.222;27.924;2023-05-19T14:41:54;24.77;;;7.45;;
30874;SDS011;17581;43.222;27.924;2023-05-19T14:44:20;19.60;;;6.90;;